Cowes, United Kingdom
Current Conditions -  °F | °C
As of 9:50 PM on Saturday 25 Oct 2014 (Local Time) from EGHI Reporting Station
Scattered Clouds Scattered Clouds  
Wind Chill: 55°   Ceiling: Unl
Heat Index: 55°   Visibility: 6mi
Dew Point: 45°   Wind: 7mph
Humidity: 67%   Direction: 250°WSW
Pressure: 30.15"   Gusts: NA
Location:  50.76°N, 1.3°W
Report Text: EGHI 252050Z 25006KT 9999 SCT040 13/07 Q1021
Loading
Personal Weather Stations






























Interactive Weather Map
Tropical Storm Tracking
New forecast layout! Learn more

10-Day Weather Forecast

Advertisements
Track Severe Weather on mobile